CheckWX is a tool to help pilots better visualize weather data.  It is not intended as a substitute for an official pre-flight weather briefing.

08:15:56 UTC

KP59 METAR
Copper Harbor Airport
Michigan, USA
Current

25 mins ago

KP59 220751Z AUTO 00000KT M03/M06 A3028 RMK AO1 SLP269 T10331056
Observed
Feb-22 @ 07:51 UTC
Visibility
Temperature
-3°C / 27°F
Dewpoint
-6°C / 21°F
Humidity
80%
Altimeter
30.28" Hg
Pressure
1026.9 hPa
Previous

1 hour ago

KP59 220651Z AUTO 31003KT M03/M06 A3027 RMK AO1 SLP264 T10331056
Observed
Feb-22 @ 06:51 UTC
Wind
  • 310° at 3 KTS
Visibility
Temperature
-3°C / 27°F
Dewpoint
-6°C / 21°F
Humidity
80%
Altimeter
30.27" Hg
Pressure
1026.4 hPa
Previous

2 hours ago

KP59 220551Z AUTO 30004KT M03/M06 A3025 RMK AO1 SLP259 T10331061 11033 21056 53012
Observed
Feb-22 @ 05:51 UTC
Wind
  • 300° at 4 KTS
Visibility
Temperature
-3°C / 27°F
Dewpoint
-6°C / 21°F
Humidity
80%
Altimeter
30.25" Hg
Pressure
1025.9 hPa